createdAt,value
2022-12-28T00:00:31.742Z,1006.533370724
2022-12-28T00:01:31.691Z,1006.3301879959998
2022-12-28T00:02:31.732Z,1006.43177936
2022-12-28T00:03:32.035Z,1006.533370724
2022-12-28T00:04:31.653Z,1006.6349620879998
2022-12-28T00:05:31.645Z,1006.533370724
2022-12-28T00:06:31.662Z,1006.6349620879998
2022-12-28T00:07:31.659Z,1006.43177936
2022-12-28T00:08:31.696Z,1006.6349620879998
2022-12-28T00:09:31.690Z,1006.6349620879998
2022-12-28T00:11:08.720Z,1006.3301879959998
2022-12-28T00:11:31.749Z,1006.6349620879998
2022-12-28T00:12:31.681Z,1006.6349620879998
2022-12-28T00:13:31.681Z,1006.533370724
2022-12-28T00:14:31.686Z,1006.43177936
2022-12-28T00:15:31.719Z,1006.43177936
2022-12-28T00:16:31.757Z,1006.736553452
2022-12-28T00:17:31.692Z,1006.43177936
2022-12-28T00:18:31.702Z,1006.6349620879998
2022-12-28T00:19:31.661Z,1006.6349620879998
2022-12-28T00:20:31.694Z,1006.6349620879998
2022-12-28T00:21:31.692Z,1006.838144816
2022-12-28T00:22:31.675Z,1006.838144816
2022-12-28T00:23:31.699Z,1006.838144816
2022-12-28T00:24:31.684Z,1006.736553452
2022-12-28T00:25:31.637Z,1006.838144816
2022-12-28T00:26:31.678Z,1006.6349620879998
2022-12-28T00:27:31.656Z,1006.736553452
2022-12-28T00:28:31.659Z,1006.736553452
2022-12-28T00:29:31.659Z,1006.736553452
2022-12-28T00:30:31.691Z,1006.736553452
2022-12-28T00:31:31.692Z,1006.6349620879998
2022-12-28T00:32:31.678Z,1006.838144816
2022-12-28T00:33:31.653Z,1006.6349620879998
2022-12-28T00:34:31.678Z,1006.9397361800001
2022-12-28T00:35:31.654Z,1006.9397361800001
2022-12-28T00:37:08.384Z,1006.736553452
2022-12-28T00:37:31.743Z,1006.736553452
2022-12-28T00:38:31.720Z,1006.736553452
2022-12-28T00:39:31.652Z,1006.9397361800001
2022-12-28T00:40:31.679Z,1006.736553452
2022-12-28T00:41:31.653Z,1006.9397361800001
2022-12-28T00:42:31.721Z,1006.838144816
2022-12-28T00:43:31.649Z,1006.9397361800001
2022-12-28T00:44:31.694Z,1006.838144816
2022-12-28T00:45:31.713Z,1006.736553452
2022-12-28T00:46:31.662Z,1006.838144816
2022-12-28T00:47:31.698Z,1006.838144816
2022-12-28T00:48:31.680Z,1006.838144816
2022-12-28T00:49:31.663Z,1006.838144816
2022-12-28T00:50:31.692Z,1006.9397361800001
2022-12-28T00:51:31.673Z,1006.9397361800001
2022-12-28T00:52:31.700Z,1006.838144816
2022-12-28T00:53:31.656Z,1006.736553452
2022-12-28T00:54:31.651Z,1007.0074637559999
2022-12-28T00:55:31.677Z,1006.736553452
2022-12-28T00:56:31.675Z,1007.0074637559999
2022-12-28T00:57:31.641Z,1007.10905512
2022-12-28T00:58:31.658Z,1006.9397361800001
2022-12-28T00:59:31.668Z,1006.736553452
2022-12-28T01:00:31.731Z,1006.9397361800001
2022-12-28T01:01:31.798Z,1007.0074637559999
2022-12-28T01:02:31.714Z,1006.838144816
2022-12-28T01:03:31.666Z,1006.9397361800001
2022-12-28T01:04:31.711Z,1006.9397361800001
2022-12-28T01:05:31.654Z,1006.9397361800001
2022-12-28T01:06:31.674Z,1007.2106464839999
2022-12-28T01:07:31.659Z,1006.9397361800001
2022-12-28T01:08:31.672Z,1006.9397361800001
2022-12-28T01:09:31.636Z,1006.9397361800001
2022-12-28T01:10:31.677Z,1007.0074637559999
2022-12-28T01:11:31.726Z,1006.838144816
2022-12-28T01:12:36.243Z,1006.838144816
2022-12-28T01:13:31.644Z,1006.838144816
2022-12-28T01:14:31.658Z,1006.838144816
2022-12-28T01:15:31.717Z,1006.736553452
2022-12-28T01:16:31.758Z,1006.9397361800001
2022-12-28T01:17:31.630Z,1006.736553452
2022-12-28T01:18:31.682Z,1006.9397361800001
2022-12-28T01:19:31.648Z,1006.838144816
2022-12-28T01:20:31.664Z,1006.9397361800001
2022-12-28T01:21:31.660Z,1006.838144816
2022-12-28T01:22:31.703Z,1006.9397361800001
2022-12-28T01:23:31.630Z,1007.0074637559999
2022-12-28T01:24:31.681Z,1006.9397361800001
2022-12-28T01:25:31.654Z,1006.736553452
2022-12-28T01:26:31.667Z,1006.9397361800001
2022-12-28T01:27:31.638Z,1006.9397361800001
2022-12-28T01:28:31.659Z,1006.9397361800001
2022-12-28T01:29:31.670Z,1006.838144816
2022-12-28T01:30:31.678Z,1007.0074637559999
2022-12-28T01:31:31.837Z,1006.838144816
2022-12-28T01:32:31.720Z,1006.736553452
2022-12-28T01:33:31.651Z,1006.9397361800001
2022-12-28T01:34:31.723Z,1006.838144816
2022-12-28T01:35:31.653Z,1006.9397361800001
2022-12-28T01:36:31.705Z,1006.838144816
2022-12-28T01:37:31.671Z,1006.9397361800001
2022-12-28T01:38:31.669Z,1006.736553452
2022-12-28T01:39:31.640Z,1006.6349620879998
2022-12-28T01:40:31.755Z,1006.9397361800001
2022-12-28T01:41:31.745Z,1006.838144816
2022-12-28T01:42:31.796Z,1006.736553452
2022-12-28T01:43:31.810Z,1006.736553452
2022-12-28T01:44:31.795Z,1006.736553452
2022-12-28T01:45:31.910Z,1006.736553452
2022-12-28T01:46:31.828Z,1006.736553452
2022-12-28T01:47:31.793Z,1006.838144816
2022-12-28T01:48:31.826Z,1006.838144816
2022-12-28T01:49:31.749Z,1006.838144816
2022-12-28T01:50:31.748Z,1006.736553452
2022-12-28T01:51:31.802Z,1006.838144816
2022-12-28T01:52:31.684Z,1006.736553452
2022-12-28T01:53:31.676Z,1006.9397361800001
2022-12-28T01:54:31.663Z,1006.9397361800001
2022-12-28T01:55:31.635Z,1006.838144816
2022-12-28T01:56:31.691Z,1006.838144816
2022-12-28T01:57:31.660Z,1006.838144816
2022-12-28T01:58:31.635Z,1007.0074637559999
2022-12-28T01:59:31.623Z,1006.838144816
2022-12-28T02:00:31.661Z,1006.6349620879998
2022-12-28T02:01:31.712Z,1006.838144816
2022-12-28T02:02:31.833Z,1006.838144816
2022-12-28T02:03:31.650Z,1006.9397361800001
2022-12-28T02:04:31.682Z,1006.838144816
2022-12-28T02:05:31.669Z,1006.9397361800001
2022-12-28T02:06:31.655Z,1007.0074637559999
2022-12-28T02:07:31.725Z,1006.838144816
2022-12-28T02:08:31.680Z,1006.9397361800001
2022-12-28T02:09:31.674Z,1006.6349620879998
2022-12-28T02:10:42.904Z,1006.9397361800001
2022-12-28T02:11:31.625Z,1006.9397361800001
2022-12-28T02:12:31.756Z,1006.838144816
2022-12-28T02:13:31.740Z,1006.9397361800001
2022-12-28T02:14:31.680Z,1006.838144816
2022-12-28T02:15:31.647Z,1006.9397361800001
2022-12-28T02:16:31.708Z,1007.0074637559999
2022-12-28T02:17:31.671Z,1006.9397361800001
2022-12-28T02:18:31.653Z,1007.0074637559999
2022-12-28T02:19:31.668Z,1007.0074637559999
2022-12-28T02:20:31.672Z,1006.9397361800001
2022-12-28T02:21:31.651Z,1006.736553452
2022-12-28T02:22:31.648Z,1006.736553452
2022-12-28T02:23:31.626Z,1007.0074637559999
2022-12-28T02:24:31.664Z,1006.838144816
2022-12-28T02:25:32.690Z,1007.10905512
2022-12-28T02:26:31.705Z,1006.9397361800001
2022-12-28T02:27:31.655Z,1007.0074637559999
2022-12-28T02:28:31.685Z,1006.9397361800001
2022-12-28T02:29:31.639Z,1006.9397361800001
2022-12-28T02:30:31.672Z,1007.0074637559999
2022-12-28T02:31:31.686Z,1007.0074637559999
2022-12-28T02:32:31.755Z,1006.9397361800001
2022-12-28T02:33:31.652Z,1007.10905512
2022-12-28T02:34:31.675Z,1006.9397361800001
2022-12-28T02:35:31.671Z,1007.2106464839999
2022-12-28T02:36:31.659Z,1007.10905512
2022-12-28T02:37:31.617Z,1007.10905512
2022-12-28T02:38:31.640Z,1007.0074637559999
2022-12-28T02:39:31.624Z,1007.0074637559999
2022-12-28T02:40:31.684Z,1007.0074637559999
2022-12-28T02:41:31.677Z,1007.0074637559999
2022-12-28T02:42:31.651Z,1007.10905512
2022-12-28T02:43:31.664Z,1007.0074637559999
2022-12-28T02:44:31.673Z,1007.0074637559999
2022-12-28T02:45:31.638Z,1007.0074637559999
2022-12-28T02:46:31.764Z,1007.10905512
2022-12-28T02:47:31.646Z,1007.0074637559999
2022-12-28T02:48:31.648Z,1007.0074637559999
2022-12-28T02:49:31.691Z,1006.9397361800001
2022-12-28T02:50:31.641Z,1007.10905512
2022-12-28T02:51:31.655Z,1007.10905512
2022-12-28T02:52:31.663Z,1007.0074637559999
2022-12-28T02:53:31.641Z,1007.0074637559999
2022-12-28T02:54:31.636Z,1007.2106464839999
2022-12-28T02:55:31.617Z,1007.0074637559999
2022-12-28T02:56:31.687Z,1007.10905512
2022-12-28T02:57:31.610Z,1007.2106464839999
2022-12-28T02:58:31.664Z,1007.0074637559999
2022-12-28T02:59:31.620Z,1006.9397361800001
2022-12-28T03:00:31.650Z,1007.10905512
2022-12-28T03:01:31.759Z,1006.9397361800001
2022-12-28T03:02:31.822Z,1006.838144816
2022-12-28T03:03:31.642Z,1007.0074637559999
2022-12-28T03:04:31.700Z,1007.0074637559999
2022-12-28T03:05:31.642Z,1006.9397361800001
2022-12-28T03:06:31.640Z,1007.0074637559999
2022-12-28T03:07:31.666Z,1007.10905512
2022-12-28T03:08:31.675Z,1007.0074637559999
2022-12-28T03:09:31.669Z,1007.10905512
2022-12-28T03:10:31.806Z,1006.838144816
2022-12-28T03:11:31.795Z,1007.10905512
2022-12-28T03:12:31.833Z,1006.9397361800001
2022-12-28T03:13:31.832Z,1006.838144816
2022-12-28T03:14:31.784Z,1006.838144816
2022-12-28T03:15:31.702Z,1007.10905512
2022-12-28T03:16:31.738Z,1007.0074637559999
2022-12-28T03:17:31.737Z,1007.10905512
2022-12-28T03:18:31.667Z,1007.10905512
2022-12-28T03:19:31.697Z,1007.10905512
2022-12-28T03:20:31.719Z,1007.10905512
2022-12-28T03:21:31.663Z,1007.10905512
2022-12-28T03:22:31.626Z,1007.0074637559999
2022-12-28T03:23:31.784Z,1007.2106464839999
2022-12-28T03:24:31.807Z,1007.3122378479999
2022-12-28T03:25:31.790Z,1007.2106464839999
2022-12-28T03:26:31.660Z,1007.2106464839999
2022-12-28T03:27:31.636Z,1007.0074637559999
2022-12-28T03:28:31.795Z,1007.10905512
2022-12-28T03:29:31.688Z,1006.9397361800001
2022-12-28T03:30:31.772Z,1006.9397361800001
2022-12-28T03:31:31.806Z,1007.0074637559999
2022-12-28T03:32:31.682Z,1007.0074637559999
2022-12-28T03:33:31.781Z,1006.9397361800001
2022-12-28T03:34:31.841Z,1007.0074637559999
2022-12-28T03:35:31.782Z,1007.0074637559999
2022-12-28T03:36:31.683Z,1006.9397361800001
2022-12-28T03:37:31.754Z,1006.9397361800001
2022-12-28T03:38:31.649Z,1006.9397361800001
2022-12-28T03:39:31.756Z,1006.9397361800001
2022-12-28T03:40:31.679Z,1007.0074637559999
2022-12-28T03:41:31.680Z,1006.736553452
2022-12-28T03:42:31.686Z,1006.9397361800001
2022-12-28T03:43:31.788Z,1007.10905512
2022-12-28T03:44:31.731Z,1006.9397361800001
2022-12-28T03:45:45.919Z,1006.9397361800001
2022-12-28T03:46:31.731Z,1007.0074637559999
2022-12-28T03:47:31.684Z,1007.0074637559999
2022-12-28T03:48:31.639Z,1007.0074637559999
2022-12-28T03:49:31.645Z,1006.9397361800001
2022-12-28T03:50:31.627Z,1006.9397361800001
2022-12-28T03:51:31.653Z,1007.0074637559999
2022-12-28T03:52:31.647Z,1007.10905512
2022-12-28T03:53:31.684Z,1006.9397361800001
2022-12-28T03:54:31.652Z,1006.9397361800001
2022-12-28T03:55:31.636Z,1007.0074637559999
2022-12-28T03:56:31.713Z,1007.0074637559999
2022-12-28T03:57:31.648Z,1007.0074637559999
2022-12-28T03:58:31.624Z,1007.10905512
2022-12-28T03:59:31.643Z,1007.0074637559999
2022-12-28T04:00:31.652Z,1006.9397361800001
2022-12-28T04:01:31.809Z,1007.0074637559999
2022-12-28T04:02:31.801Z,1007.3122378479999
2022-12-28T04:03:31.822Z,1007.10905512
2022-12-28T04:04:31.627Z,1007.0074637559999
2022-12-28T04:05:31.668Z,1006.9397361800001
2022-12-28T04:06:31.643Z,1007.10905512
2022-12-28T04:07:31.629Z,1007.2106464839999
2022-12-28T04:08:31.625Z,1007.10905512
2022-12-28T04:09:31.709Z,1007.3122378479999
2022-12-28T04:10:31.629Z,1007.10905512
2022-12-28T04:11:31.627Z,1007.0074637559999
2022-12-28T04:12:31.633Z,1007.3122378479999
2022-12-28T04:13:31.650Z,1007.2106464839999
2022-12-28T04:14:31.649Z,1007.10905512
2022-12-28T04:15:31.668Z,1007.2106464839999
2022-12-28T04:16:31.655Z,1007.2106464839999
2022-12-28T04:17:31.669Z,1007.3122378479999
2022-12-28T04:18:31.643Z,1007.2106464839999
2022-12-28T04:19:31.664Z,1007.3122378479999
2022-12-28T04:20:31.831Z,1007.3122378479999
2022-12-28T04:21:31.645Z,1007.2106464839999
2022-12-28T04:22:31.640Z,1007.10905512
2022-12-28T04:23:31.726Z,1007.2106464839999
2022-12-28T04:24:31.635Z,1007.2106464839999
2022-12-28T04:25:31.634Z,1007.10905512
2022-12-28T04:26:31.626Z,1007.2106464839999
2022-12-28T04:27:31.653Z,1007.2106464839999
2022-12-28T04:28:31.638Z,1007.0074637559999
2022-12-28T04:29:31.632Z,1007.3122378479999
2022-12-28T04:30:31.712Z,1007.10905512
2022-12-28T04:31:31.753Z,1007.10905512
2022-12-28T04:32:31.645Z,1007.0074637559999
2022-12-28T04:33:31.669Z,1007.3122378479999
2022-12-28T04:34:31.643Z,1007.0074637559999
2022-12-28T04:35:31.655Z,1007.0074637559999
2022-12-28T04:36:31.745Z,1007.10905512
2022-12-28T04:37:31.655Z,1007.3122378479999
2022-12-28T04:38:31.643Z,1007.0074637559999
2022-12-28T04:39:55.691Z,1007.0074637559999
2022-12-28T04:40:31.723Z,1007.2106464839999
2022-12-28T04:41:31.638Z,1007.3122378479999
2022-12-28T04:42:31.631Z,1007.2106464839999
2022-12-28T04:43:31.658Z,1007.10905512
2022-12-28T04:44:31.652Z,1007.2106464839999
2022-12-28T04:45:31.641Z,1007.2106464839999
2022-12-28T04:46:31.641Z,1007.10905512
2022-12-28T04:47:31.640Z,1007.2106464839999
2022-12-28T04:48:31.637Z,1007.2106464839999
2022-12-28T04:49:31.636Z,1007.2106464839999
2022-12-28T04:50:31.613Z,1007.10905512
2022-12-28T04:51:31.662Z,1007.2106464839999
2022-12-28T04:52:31.669Z,1007.0074637559999
2022-12-28T04:53:31.637Z,1007.2106464839999
2022-12-28T04:54:31.645Z,1007.2106464839999
2022-12-28T04:55:33.470Z,1007.3122378479999
2022-12-28T04:56:31.695Z,1007.10905512
2022-12-28T04:57:31.625Z,1007.3122378479999
2022-12-28T04:58:31.599Z,1007.2106464839999
2022-12-28T04:59:31.707Z,1007.2106464839999
2022-12-28T05:00:31.714Z,1007.3122378479999
2022-12-28T05:01:31.976Z,1007.3122378479999
2022-12-28T05:02:31.769Z,1007.3122378479999
2022-12-28T05:03:31.734Z,1007.10905512
2022-12-28T05:04:31.627Z,1007.3122378479999
2022-12-28T05:05:31.657Z,1007.10905512
2022-12-28T05:06:31.641Z,1007.2106464839999
2022-12-28T05:07:31.656Z,1007.3122378479999
2022-12-28T05:08:31.642Z,1007.3122378479999
2022-12-28T05:09:31.727Z,1007.2106464839999
2022-12-28T05:10:31.626Z,1007.3122378479999
2022-12-28T05:11:31.646Z,1007.0074637559999
2022-12-28T05:12:31.635Z,1007.0074637559999
2022-12-28T05:13:31.639Z,1007.10905512
2022-12-28T05:14:36.807Z,1007.0074637559999
2022-12-28T05:15:31.654Z,1007.3122378479999
2022-12-28T05:16:31.739Z,1007.10905512
2022-12-28T05:17:31.641Z,1006.9397361800001
2022-12-28T05:18:31.650Z,1007.0074637559999
2022-12-28T05:19:31.617Z,1007.0074637559999
2022-12-28T05:20:31.686Z,1007.0074637559999
2022-12-28T05:21:31.619Z,1006.9397361800001
2022-12-28T05:22:34.020Z,1007.0074637559999
2022-12-28T05:23:31.720Z,1006.838144816
2022-12-28T05:24:31.652Z,1007.0074637559999
2022-12-28T05:25:31.676Z,1007.0074637559999
2022-12-28T05:26:31.639Z,1006.838144816
2022-12-28T05:27:31.623Z,1006.736553452
2022-12-28T05:28:31.630Z,1007.10905512
2022-12-28T05:29:31.643Z,1007.10905512
2022-12-28T05:30:31.619Z,1007.2106464839999
2022-12-28T05:31:31.696Z,1007.10905512
2022-12-28T05:32:31.658Z,1007.0074637559999
2022-12-28T05:33:31.645Z,1007.5154205759999
2022-12-28T05:34:31.646Z,1007.0074637559999
2022-12-28T05:35:31.633Z,1007.10905512
2022-12-28T05:36:31.669Z,1007.3122378479999
2022-12-28T05:37:31.611Z,1007.6170119399999
2022-12-28T05:38:31.666Z,1007.3122378479999
2022-12-28T05:39:31.632Z,1007.413829212
2022-12-28T05:40:31.644Z,1007.2106464839999
2022-12-28T05:41:31.620Z,1007.413829212
2022-12-28T05:42:31.628Z,1007.5154205759999
2022-12-28T05:43:31.606Z,1007.10905512
2022-12-28T05:44:31.660Z,1007.10905512
2022-12-28T05:45:31.615Z,1007.3122378479999
2022-12-28T05:46:31.724Z,1007.3122378479999
2022-12-28T05:47:31.623Z,1007.3122378479999
2022-12-28T05:48:31.702Z,1007.3122378479999
2022-12-28T05:49:31.648Z,1007.5154205759999
2022-12-28T05:50:31.645Z,1007.2106464839999
2022-12-28T05:51:31.609Z,1007.413829212
2022-12-28T05:52:31.641Z,1007.413829212
2022-12-28T05:53:31.714Z,1007.3122378479999
2022-12-28T05:54:31.683Z,1007.3122378479999
2022-12-28T05:55:31.627Z,1007.2106464839999
2022-12-28T05:56:31.693Z,1007.10905512
2022-12-28T05:57:31.638Z,1007.0074637559999
2022-12-28T05:58:31.623Z,1007.2106464839999
2022-12-28T05:59:31.740Z,1007.3122378479999
2022-12-28T06:00:31.657Z,1007.413829212
2022-12-28T06:01:31.798Z,1007.413829212
2022-12-28T06:02:31.729Z,1007.2106464839999
2022-12-28T06:03:31.721Z,1007.2106464839999
2022-12-28T06:04:31.661Z,1007.0074637559999
2022-12-28T06:05:31.641Z,1007.2106464839999
2022-12-28T06:06:31.659Z,1007.0074637559999
2022-12-28T06:07:31.628Z,1007.10905512
2022-12-28T06:08:31.651Z,1007.10905512
2022-12-28T06:09:31.627Z,1007.3122378479999
2022-12-28T06:10:31.662Z,1007.3122378479999
2022-12-28T06:11:31.609Z,1007.2106464839999
2022-12-28T06:12:31.686Z,1007.10905512
2022-12-28T06:13:31.624Z,1007.0074637559999
2022-12-28T06:14:31.648Z,1007.2106464839999
2022-12-28T06:15:31.607Z,1007.2106464839999
2022-12-28T06:16:31.768Z,1007.3122378479999
2022-12-28T06:17:31.622Z,1007.413829212
2022-12-28T06:18:31.632Z,1007.3122378479999
2022-12-28T06:19:31.619Z,1007.2106464839999
2022-12-28T06:20:31.622Z,1007.10905512
2022-12-28T06:21:31.627Z,1007.3122378479999
2022-12-28T06:22:31.644Z,1007.5154205759999
2022-12-28T06:23:31.675Z,1007.413829212
2022-12-28T06:24:31.652Z,1007.3122378479999
2022-12-28T06:25:31.741Z,1007.2106464839999
2022-12-28T06:26:31.605Z,1007.413829212
2022-12-28T06:27:31.668Z,1007.3122378479999
2022-12-28T06:28:31.644Z,1007.413829212
2022-12-28T06:29:31.633Z,1007.5154205759999
2022-12-28T06:30:31.617Z,1007.413829212
2022-12-28T06:31:31.725Z,1007.5154205759999
2022-12-28T06:32:31.651Z,1007.413829212
2022-12-28T06:33:31.626Z,1007.413829212
2022-12-28T06:34:31.600Z,1007.5154205759999
2022-12-28T06:35:31.631Z,1007.5154205759999
2022-12-28T06:36:31.644Z,1007.5154205759999
2022-12-28T06:37:31.595Z,1007.5154205759999
2022-12-28T06:38:31.616Z,1007.413829212
2022-12-28T06:39:31.633Z,1007.3122378479999
2022-12-28T06:41:02.341Z,1007.413829212
2022-12-28T06:41:31.675Z,1007.2106464839999
2022-12-28T06:42:31.619Z,1007.413829212
2022-12-28T06:43:31.698Z,1007.3122378479999
2022-12-28T06:44:31.636Z,1007.3122378479999
2022-12-28T06:45:31.659Z,1007.3122378479999
2022-12-28T06:46:31.612Z,1007.5154205759999
2022-12-28T06:47:31.637Z,1007.3122378479999
2022-12-28T06:48:31.616Z,1007.413829212
2022-12-28T06:49:31.641Z,1007.413829212
2022-12-28T06:50:36.814Z,1007.5154205759999
2022-12-28T06:51:31.652Z,1007.5154205759999
2022-12-28T06:52:31.635Z,1007.5154205759999
2022-12-28T06:53:31.672Z,1007.3122378479999
2022-12-28T06:54:31.609Z,1007.413829212
2022-12-28T06:55:31.654Z,1007.6170119399999
2022-12-28T06:56:31.628Z,1007.6170119399999
2022-12-28T06:57:31.595Z,1007.718603304
2022-12-28T06:58:31.609Z,1007.5154205759999
2022-12-28T06:59:31.735Z,1007.413829212
2022-12-28T07:00:31.611Z,1007.3122378479999
2022-12-28T07:01:31.796Z,1007.5154205759999
2022-12-28T07:02:31.891Z,1007.6170119399999
2022-12-28T07:03:31.666Z,1007.3122378479999
2022-12-28T07:04:31.650Z,1007.413829212
2022-12-28T07:05:31.623Z,1007.413829212
2022-12-28T07:06:31.644Z,1007.6170119399999
2022-12-28T07:07:31.625Z,1007.3122378479999
2022-12-28T07:08:31.644Z,1007.6170119399999
2022-12-28T07:09:31.605Z,1007.413829212
2022-12-28T07:10:31.713Z,1007.5154205759999
2022-12-28T07:11:31.641Z,1007.413829212
2022-12-28T07:12:31.614Z,1007.5154205759999
2022-12-28T07:13:31.636Z,1007.5154205759999
2022-12-28T07:14:31.656Z,1007.5154205759999
2022-12-28T07:15:31.656Z,1007.5154205759999
2022-12-28T07:17:31.636Z,1007.5154205759999
2022-12-28T07:18:31.642Z,1007.413829212
2022-12-28T07:19:31.625Z,1007.3122378479999
2022-12-28T07:20:37.026Z,1007.413829212
2022-12-28T07:21:31.705Z,1007.413829212
2022-12-28T07:22:31.630Z,1007.5154205759999
2022-12-28T07:23:31.593Z,1007.413829212
2022-12-28T07:24:31.661Z,1007.5154205759999
2022-12-28T07:25:31.649Z,1007.413829212
2022-12-28T07:26:31.685Z,1007.718603304
2022-12-28T07:27:31.634Z,1007.3122378479999
2022-12-28T07:28:31.651Z,1007.413829212
2022-12-28T07:29:31.630Z,1007.5154205759999
2022-12-28T07:30:31.767Z,1007.413829212
2022-12-28T07:31:31.625Z,1007.413829212
2022-12-28T07:32:31.658Z,1007.5154205759999
2022-12-28T07:33:31.604Z,1007.5154205759999
2022-12-28T07:34:31.628Z,1007.3122378479999
2022-12-28T07:35:31.590Z,1007.3122378479999
2022-12-28T07:36:31.631Z,1007.5154205759999
2022-12-28T07:37:31.635Z,1007.2106464839999
2022-12-28T07:38:31.659Z,1007.3122378479999
2022-12-28T07:39:31.614Z,1007.413829212
2022-12-28T07:40:31.649Z,1007.413829212
2022-12-28T07:41:31.670Z,1007.3122378479999
2022-12-28T07:42:31.644Z,1007.2106464839999
2022-12-28T07:43:31.608Z,1007.3122378479999
2022-12-28T07:44:35.447Z,1007.3122378479999
2022-12-28T07:45:31.623Z,1007.413829212
2022-12-28T07:46:31.629Z,1007.3122378479999
2022-12-28T07:47:31.642Z,1007.413829212
2022-12-28T07:48:31.664Z,1007.413829212
2022-12-28T07:49:31.622Z,1007.3122378479999
2022-12-28T07:50:37.616Z,1007.3122378479999
2022-12-28T07:51:31.621Z,1007.413829212
2022-12-28T07:52:31.661Z,1007.413829212
2022-12-28T07:53:31.621Z,1007.2106464839999
2022-12-28T07:54:31.637Z,1007.5154205759999
2022-12-28T07:55:31.618Z,1007.413829212
2022-12-28T07:57:31.717Z,1007.3122378479999
2022-12-28T07:58:31.621Z,1007.413829212
2022-12-28T07:59:31.670Z,1007.5154205759999
2022-12-28T08:00:31.659Z,1007.413829212
2022-12-28T08:01:31.812Z,1007.3122378479999
2022-12-28T08:02:31.674Z,1007.413829212
2022-12-28T08:03:31.696Z,1007.413829212
2022-12-28T08:04:31.663Z,1007.3122378479999
2022-12-28T08:05:31.646Z,1007.2106464839999
2022-12-28T08:06:31.627Z,1007.413829212
2022-12-28T08:07:31.660Z,1007.2106464839999
2022-12-28T08:08:31.670Z,1007.3122378479999
2022-12-28T08:09:31.606Z,1007.2106464839999
2022-12-28T08:10:31.676Z,1007.5154205759999
2022-12-28T08:11:31.604Z,1007.413829212
2022-12-28T08:12:31.615Z,1007.5154205759999
2022-12-28T08:13:31.618Z,1007.413829212
2022-12-28T08:14:31.614Z,1007.413829212
2022-12-28T08:15:31.660Z,1007.413829212
2022-12-28T08:16:31.646Z,1007.3122378479999
2022-12-28T08:17:31.589Z,1007.3122378479999
2022-12-28T08:18:31.649Z,1007.413829212
2022-12-28T08:19:31.631Z,1007.2106464839999
2022-12-28T08:20:31.604Z,1007.3122378479999
2022-12-28T08:21:31.661Z,1007.3122378479999
2022-12-28T08:22:31.606Z,1007.413829212
2022-12-28T08:23:31.632Z,1007.413829212
2022-12-28T08:24:31.610Z,1007.10905512
2022-12-28T08:25:31.611Z,1007.5154205759999
2022-12-28T08:26:31.602Z,1007.2106464839999
2022-12-28T08:27:36.648Z,1007.2106464839999
2022-12-28T08:28:31.609Z,1007.2106464839999
2022-12-28T08:29:31.652Z,1007.3122378479999
2022-12-28T08:30:31.622Z,1007.2106464839999
2022-12-28T08:31:31.634Z,1007.3122378479999
2022-12-28T08:32:31.609Z,1007.10905512
2022-12-28T08:33:31.638Z,1007.3122378479999
2022-12-28T08:34:31.639Z,1007.3122378479999
2022-12-28T08:35:31.629Z,1007.413829212
2022-12-28T08:36:31.615Z,1007.3122378479999
2022-12-28T08:37:31.648Z,1007.2106464839999
2022-12-28T08:38:31.599Z,1007.413829212
2022-12-28T08:39:31.770Z,1007.2106464839999
2022-12-28T08:40:31.640Z,1007.2106464839999
2022-12-28T08:41:31.638Z,1007.3122378479999
2022-12-28T08:42:31.623Z,1007.2106464839999
2022-12-28T08:43:31.621Z,1007.10905512
2022-12-28T08:44:31.621Z,1007.2106464839999
2022-12-28T08:45:31.693Z,1007.2106464839999
2022-12-28T08:46:31.700Z,1007.10905512
2022-12-28T08:47:31.635Z,1007.0074637559999
2022-12-28T08:48:31.601Z,1007.10905512
2022-12-28T08:49:31.684Z,1007.413829212
2022-12-28T08:50:31.987Z,1007.10905512
2022-12-28T08:51:31.616Z,1007.10905512
2022-12-28T08:52:31.605Z,1007.0074637559999
2022-12-28T08:53:31.654Z,1007.10905512
2022-12-28T08:54:31.589Z,1007.10905512
2022-12-28T08:55:31.613Z,1006.9397361800001
2022-12-28T08:56:31.605Z,1006.9397361800001
2022-12-28T08:57:31.663Z,1007.10905512
2022-12-28T08:58:31.603Z,1007.0074637559999
2022-12-28T08:59:31.587Z,1007.0074637559999
2022-12-28T09:00:31.612Z,1007.10905512
2022-12-28T09:01:34.629Z,1007.2106464839999
2022-12-28T09:02:31.938Z,1007.10905512
2022-12-28T09:03:31.631Z,1007.2106464839999
2022-12-28T09:04:31.580Z,1006.9397361800001
2022-12-28T09:05:37.492Z,1007.2106464839999
2022-12-28T09:06:31.603Z,1007.10905512
2022-12-28T09:07:31.755Z,1007.0074637559999
2022-12-28T09:08:31.594Z,1007.10905512
2022-12-28T09:09:31.716Z,1007.2106464839999
2022-12-28T09:10:31.608Z,1007.0074637559999
2022-12-28T09:11:31.618Z,1007.0074637559999
2022-12-28T09:12:31.574Z,1007.0074637559999
2022-12-28T09:13:31.620Z,1007.2106464839999
2022-12-28T09:14:31.619Z,1007.2106464839999
2022-12-28T09:15:31.603Z,1007.10905512
2022-12-28T09:16:31.672Z,1007.0074637559999
2022-12-28T09:17:31.625Z,1007.0074637559999
2022-12-28T09:18:31.601Z,1007.0074637559999
2022-12-28T09:19:31.667Z,1006.9397361800001
2022-12-28T09:20:31.600Z,1006.9397361800001
2022-12-28T09:21:31.611Z,1007.0074637559999
2022-12-28T09:22:31.636Z,1006.838144816
2022-12-28T09:23:31.639Z,1007.0074637559999
2022-12-28T09:24:31.596Z,1006.9397361800001
2022-12-28T09:25:31.617Z,1007.10905512
2022-12-28T09:26:31.588Z,1007.0074637559999
2022-12-28T09:27:31.658Z,1006.736553452